Terminal Aerodrome Forecast
Issued by NWS

Home | Current Version | Previous Version | Text Only | Print | Product List | Glossary Off
Versions: 1 2 3 4 5 6 7 8 9 10 11 12 13 14 15 16 17 18 19

795
FTUS43 KLSX 151956 AAA
TAFSUS
TAF AMD
KSUS 151956Z 1520/1618 29012KT P6SM SCT045
     FM152100 27009KT P6SM SCT045
     FM160600 22007KT P6SM SKC WS014/25040KT
     FM161500 22009KT P6SM SKC=

USA.gov is the U.S. government's official web portal to all federal, state and local government web resources and services.